createdAt,value
2022-11-07T00:01:49.167Z,2.38
2022-11-07T00:04:17.957Z,2.30
2022-11-07T00:06:45.508Z,2.13
2022-11-07T00:09:12.839Z,2.17
2022-11-07T00:11:40.065Z,1.90
2022-11-07T00:14:07.404Z,2.35
2022-11-07T00:16:34.887Z,2.22
2022-11-07T00:19:02.133Z,1.98
2022-11-07T00:21:29.308Z,2.20
2022-11-07T00:23:56.521Z,1.70
2022-11-07T00:26:23.831Z,1.70
2022-11-07T00:28:51.041Z,1.75
2022-11-07T00:31:18.772Z,2.10
2022-11-07T00:33:46.584Z,1.80
2022-11-07T00:36:25.761Z,1.92
2022-11-07T00:38:53.354Z,1.83
2022-11-07T00:41:21.661Z,1.80
2022-11-07T00:43:48.844Z,1.77
2022-11-07T00:46:17.293Z,1.77
2022-11-07T00:48:44.525Z,1.70
2022-11-07T00:51:14.425Z,2.10
2022-11-07T00:53:42.215Z,2.20
2022-11-07T00:56:12.233Z,2.20
2022-11-07T00:58:40.194Z,1.90
2022-11-07T01:01:22.737Z,2.20
2022-11-07T01:04:08.835Z,2.00
2022-11-07T01:06:38.559Z,2.13
2022-11-07T01:09:11.006Z,2.00
2022-11-07T01:11:39.569Z,2.40
2022-11-07T01:14:07.559Z,2.25
2022-11-07T01:16:35.711Z,2.80
2022-11-07T01:19:03.982Z,2.33
2022-11-07T01:21:31.676Z,2.58
2022-11-07T01:24:00.397Z,2.63
2022-11-07T01:26:27.742Z,2.70
2022-11-07T01:28:54.899Z,2.58
2022-11-07T01:31:22.026Z,2.90
2022-11-07T01:33:49.243Z,2.80
2022-11-07T01:36:18.159Z,2.55
2022-11-07T01:38:50.755Z,2.78
2022-11-07T01:41:22.253Z,2.92
2022-11-07T01:44:07.919Z,2.63
2022-11-07T01:46:41.103Z,3.03
2022-11-07T01:49:30.031Z,3.10
2022-11-07T01:52:04.407Z,3.08
2022-11-07T01:54:57.465Z,2.97
2022-11-07T01:57:32.239Z,2.40
2022-11-07T02:00:02.183Z,2.90
2022-11-07T02:02:29.538Z,2.65
2022-11-07T02:04:59.687Z,2.60
2022-11-07T02:07:27.082Z,2.50
2022-11-07T02:09:55.257Z,2.92
2022-11-07T02:12:24.845Z,2.60
2022-11-07T02:14:52.371Z,2.42
2022-11-07T02:17:19.961Z,2.58
2022-11-07T02:19:48.953Z,3.20
2022-11-07T02:22:40.882Z,2.97
2022-11-07T02:25:12.531Z,2.50
2022-11-07T02:27:42.411Z,2.33
2022-11-07T02:30:34.954Z,3.55
2022-11-07T02:33:03.452Z,2.83
2022-11-07T02:35:43.265Z,2.70
2022-11-07T02:38:19.702Z,3.40
2022-11-07T02:40:52.251Z,2.80
2022-11-07T02:43:22.998Z,2.60
2022-11-07T02:45:50.767Z,2.92
2022-11-07T02:48:18.650Z,2.95
2022-11-07T02:50:46.400Z,2.80
2022-11-07T02:53:13.984Z,2.97
2022-11-07T02:55:41.199Z,2.80
2022-11-07T02:58:08.479Z,2.85
2022-11-07T03:00:35.781Z,3.15
2022-11-07T03:03:02.931Z,3.15
2022-11-07T03:05:30.423Z,3.47
2022-11-07T03:07:57.634Z,2.90
2022-11-07T03:10:24.808Z,2.95
2022-11-07T03:12:52.068Z,3.05
2022-11-07T03:15:19.401Z,3.08
2022-11-07T03:17:46.591Z,2.88
2022-11-07T03:20:13.787Z,3.03
2022-11-07T03:22:40.973Z,3.03
2022-11-07T03:25:08.842Z,3.38
2022-11-07T03:27:36.067Z,3.20
2022-11-07T03:30:03.486Z,3.33
2022-11-07T03:32:30.631Z,3.10
2022-11-07T03:34:57.859Z,3.60
2022-11-07T03:37:25.071Z,3.03
2022-11-07T03:39:52.254Z,3.20
2022-11-07T03:42:19.513Z,3.25
2022-11-07T03:44:46.662Z,3.20
2022-11-07T03:47:13.978Z,3.10
2022-11-07T03:49:41.696Z,3.45
2022-11-07T03:52:09.179Z,3.35
2022-11-07T03:54:36.358Z,3.28
2022-11-07T03:57:03.699Z,3.10
2022-11-07T03:59:31.010Z,3.33
2022-11-07T04:01:58.222Z,3.10
2022-11-07T04:04:25.436Z,3.05
2022-11-07T04:06:52.561Z,3.25
2022-11-07T04:09:19.796Z,3.20
2022-11-07T04:12:05.689Z,2.70
2022-11-07T04:14:51.443Z,3.28
2022-11-07T04:17:21.580Z,2.78
2022-11-07T04:19:50.834Z,3.20
2022-11-07T04:22:18.560Z,2.95
2022-11-07T04:24:46.471Z,3.05
2022-11-07T04:27:33.677Z,2.97
2022-11-07T04:30:19.929Z,3.45
2022-11-07T04:32:51.869Z,2.88
2022-11-07T04:35:23.616Z,2.13
2022-11-07T04:37:50.963Z,3.05
2022-11-07T04:40:20.037Z,2.97
2022-11-07T04:42:48.598Z,2.90
2022-11-07T04:45:16.375Z,2.92
2022-11-07T04:47:44.223Z,2.60
2022-11-07T04:50:13.800Z,3.15
2022-11-07T04:52:41.226Z,2.70
2022-11-07T04:55:10.309Z,2.63
2022-11-07T04:57:37.498Z,2.50
2022-11-07T05:00:05.231Z,2.53
2022-11-07T05:02:32.515Z,2.13
2022-11-07T05:04:59.790Z,2.58
2022-11-07T05:07:27.005Z,2.38
2022-11-07T05:09:54.166Z,2.58
2022-11-07T05:12:21.692Z,2.28
2022-11-07T05:14:48.807Z,2.42
2022-11-07T05:17:17.259Z,2.85
2022-11-07T05:19:44.538Z,2.67
2022-11-07T05:22:30.771Z,2.70
2022-11-07T05:24:57.948Z,2.70
2022-11-07T05:27:25.620Z,2.97
2022-11-07T05:29:52.893Z,2.70
2022-11-07T05:32:20.214Z,2.83
2022-11-07T05:34:47.410Z,2.65
2022-11-07T05:37:15.300Z,2.55
2022-11-07T05:39:42.660Z,2.92
2022-11-07T05:42:09.940Z,2.78
2022-11-07T05:44:37.187Z,2.95
2022-11-07T05:47:04.521Z,2.80
2022-11-07T05:49:31.699Z,3.05
2022-11-07T05:51:58.901Z,2.72
2022-11-07T05:54:28.283Z,2.72
2022-11-07T05:56:58.624Z,3.10
2022-11-07T05:59:26.210Z,2.78
2022-11-07T06:01:54.210Z,2.33
2022-11-07T06:04:21.603Z,2.72
2022-11-07T06:06:48.621Z,2.42
2022-11-07T06:09:15.991Z,2.20
2022-11-07T06:11:43.153Z,2.30
2022-11-07T06:14:10.400Z,2.58
2022-11-07T06:16:37.576Z,2.50
2022-11-07T06:19:04.786Z,2.47
2022-11-07T06:21:32.404Z,2.28
2022-11-07T06:23:59.605Z,3.05
2022-11-07T06:26:27.125Z,2.33
2022-11-07T06:28:54.469Z,2.80
2022-11-07T06:31:21.982Z,2.70
2022-11-07T06:33:52.663Z,2.13
2022-11-07T06:38:50.831Z,2.70
2022-11-07T06:41:17.972Z,2.30
2022-11-07T06:43:45.202Z,2.80
2022-11-07T06:46:14.100Z,2.05
2022-11-07T06:48:41.201Z,2.47
2022-11-07T06:51:10.328Z,2.40
2022-11-07T06:53:38.292Z,2.85
2022-11-07T06:56:07.483Z,2.00
2022-11-07T06:58:35.114Z,2.60
2022-11-07T07:01:03.606Z,2.50
2022-11-07T07:03:30.940Z,2.17
2022-11-07T07:06:06.490Z,2.45
2022-11-07T07:08:34.312Z,2.60
2022-11-07T07:11:19.463Z,2.33
2022-11-07T07:13:46.614Z,2.20
2022-11-07T07:16:13.655Z,2.08
2022-11-07T07:18:40.894Z,2.13
2022-11-07T07:21:13.293Z,2.40
2022-11-07T07:23:40.840Z,2.30
2022-11-07T07:26:13.609Z,2.40
2022-11-07T07:28:41.072Z,2.47
2022-11-07T07:31:19.205Z,2.75
2022-11-07T07:33:47.698Z,2.22
2022-11-07T07:36:20.206Z,2.42
2022-11-07T07:38:48.992Z,2.40
2022-11-07T07:41:16.961Z,2.80
2022-11-07T07:43:44.501Z,2.13
2022-11-07T07:46:16.391Z,2.30
2022-11-07T07:48:43.551Z,2.13
2022-11-07T07:51:10.671Z,2.15
2022-11-07T07:53:37.840Z,2.60
2022-11-07T07:56:07.070Z,2.28
2022-11-07T07:58:34.663Z,2.38
2022-11-07T08:01:02.285Z,2.00
2022-11-07T08:03:44.558Z,2.38
2022-11-07T08:06:16.655Z,2.50
2022-11-07T08:08:43.732Z,2.60
2022-11-07T08:11:11.127Z,2.58
2022-11-07T08:13:38.240Z,2.20
2022-11-07T08:16:07.962Z,1.30
2022-11-07T08:18:36.871Z,2.40
2022-11-07T08:21:04.044Z,2.35
2022-11-07T08:23:31.433Z,2.45
2022-11-07T08:26:00.385Z,2.38
2022-11-07T08:28:30.600Z,2.30
2022-11-07T08:31:09.992Z,2.35
2022-11-07T08:33:37.186Z,2.60
2022-11-07T08:36:06.432Z,2.47
2022-11-07T08:38:35.656Z,2.28
2022-11-07T08:41:03.163Z,2.30
2022-11-07T08:43:30.774Z,2.80
2022-11-07T08:45:57.953Z,2.60
2022-11-07T08:48:25.132Z,2.30
2022-11-07T08:50:57.036Z,2.60
2022-11-07T08:53:25.952Z,2.30
2022-11-07T08:55:53.112Z,2.60
2022-11-07T08:58:20.457Z,2.35
2022-11-07T09:00:48.376Z,2.40
2022-11-07T09:03:43.501Z,2.47
2022-11-07T09:06:03.202Z,2.60
2022-11-07T09:08:30.522Z,2.20
2022-11-07T09:11:02.660Z,2.55
2022-11-07T09:13:34.003Z,2.20
2022-11-07T09:16:02.791Z,2.05
2022-11-07T09:18:30.062Z,2.22
2022-11-07T09:20:58.727Z,2.80
2022-11-07T09:23:26.063Z,1.75
2022-11-07T09:25:53.402Z,2.03
2022-11-07T09:28:20.573Z,2.55
2022-11-07T09:30:47.760Z,2.13
2022-11-07T09:33:15.164Z,2.38
2022-11-07T09:35:42.401Z,2.33
2022-11-07T09:38:09.604Z,2.10
2022-11-07T09:41:11.015Z,2.17
2022-11-07T09:44:12.120Z,2.40
2022-11-07T09:46:45.403Z,2.50
2022-11-07T09:49:48.396Z,2.55
2022-11-07T09:52:37.793Z,2.60
2022-11-07T09:55:25.539Z,2.72
2022-11-07T09:57:57.815Z,2.63
2022-11-07T10:00:25.620Z,2.08
2022-11-07T10:02:58.317Z,1.92
2022-11-07T10:05:52.366Z,2.38
2022-11-07T10:08:37.894Z,2.38
2022-11-07T10:11:28.172Z,2.65
2022-11-07T10:14:12.396Z,2.22
2022-11-07T10:16:58.206Z,2.15
2022-11-07T10:19:58.959Z,2.28
2022-11-07T10:25:22.934Z,1.45
2022-11-07T10:28:07.240Z,2.35
2022-11-07T10:30:35.203Z,2.25
2022-11-07T10:33:11.880Z,2.30
2022-11-07T10:35:44.081Z,2.22
2022-11-07T10:38:30.588Z,2.42
2022-11-07T10:40:57.680Z,2.55
2022-11-07T10:43:40.346Z,2.30
2022-11-07T10:46:15.613Z,2.17
2022-11-07T10:49:00.260Z,1.90
2022-11-07T10:51:37.959Z,2.17
2022-11-07T10:54:06.395Z,1.92
2022-11-07T10:56:49.107Z,2.10
2022-11-07T10:59:32.905Z,1.90
2022-11-07T11:02:03.652Z,2.15
2022-11-07T11:04:33.059Z,1.92
2022-11-07T11:07:05.772Z,2.17
2022-11-07T11:09:35.142Z,1.63
2022-11-07T11:12:13.481Z,1.73
2022-11-07T11:14:40.763Z,2.20
2022-11-07T11:17:28.704Z,2.25
2022-11-07T11:19:56.336Z,2.00
2022-11-07T11:22:25.174Z,1.80
2022-11-07T11:25:18.622Z,1.95
2022-11-07T11:27:48.144Z,2.22
2022-11-07T11:30:20.551Z,1.77
2022-11-07T11:32:58.856Z,1.70
2022-11-07T11:35:47.913Z,1.85
2022-11-07T11:38:29.454Z,2.00
2022-11-07T11:41:07.693Z,2.20
2022-11-07T11:43:45.835Z,2.10
2022-11-07T11:46:31.590Z,2.15
2022-11-07T11:49:05.952Z,2.42
2022-11-07T11:51:44.891Z,2.78
2022-11-07T11:54:14.642Z,2.15
2022-11-07T11:56:44.990Z,1.83
2022-11-07T11:59:30.544Z,1.88
2022-11-07T12:02:16.452Z,1.83
2022-11-07T12:05:12.972Z,1.80
2022-11-07T12:08:00.917Z,2.00
2022-11-07T12:10:41.332Z,1.90
2022-11-07T12:13:19.545Z,2.33
2022-11-07T12:15:56.052Z,2.00
2022-11-07T12:18:47.805Z,1.67
2022-11-07T12:21:20.454Z,1.63
2022-11-07T12:24:08.601Z,1.73
2022-11-07T12:26:50.045Z,1.88
2022-11-07T12:29:42.259Z,2.13
2022-11-07T12:32:28.230Z,1.98
2022-11-07T12:35:02.104Z,1.48
2022-11-07T12:38:00.292Z,2.00
2022-11-07T12:40:57.820Z,1.70
2022-11-07T12:43:38.354Z,1.60
2022-11-07T12:46:25.528Z,1.77
2022-11-07T12:49:13.959Z,1.60
2022-11-07T12:51:50.226Z,1.65
2022-11-07T12:54:54.009Z,1.80
2022-11-07T12:57:23.843Z,1.38
2022-11-07T13:00:02.136Z,2.03
2022-11-07T13:02:52.897Z,1.77
2022-11-07T13:07:59.983Z,1.40
2022-11-07T13:10:34.758Z,1.60
2022-11-07T13:13:25.255Z,1.40
2022-11-07T13:16:16.363Z,1.35
2022-11-07T13:21:07.629Z,1.30
2022-11-07T13:23:34.745Z,1.10
2022-11-07T13:26:25.997Z,1.50
2022-11-07T13:28:59.223Z,1.90
2022-11-07T13:31:34.018Z,1.50
2022-11-07T13:34:19.535Z,1.50
2022-11-07T13:36:49.932Z,1.38
2022-11-07T13:39:17.644Z,2.33
2022-11-07T13:41:46.423Z,3.85
2022-11-07T13:44:31.731Z,2.03
2022-11-07T13:47:05.389Z,3.58
2022-11-07T13:49:44.997Z,2.00
2022-11-07T13:52:50.276Z,1.60
2022-11-07T13:55:22.527Z,2.50
2022-11-07T13:58:07.070Z,1.20
2022-11-07T14:00:34.964Z,1.90
2022-11-07T14:03:02.489Z,1.20
2022-11-07T14:05:36.383Z,1.40
2022-11-07T14:08:28.139Z,1.60
2022-11-07T14:10:55.572Z,1.40
2022-11-07T14:13:27.791Z,1.10
2022-11-07T14:16:04.423Z,1.80
2022-11-07T14:18:42.749Z,1.40
2022-11-07T14:21:37.080Z,2.22
2022-11-07T14:24:20.333Z,1.70
2022-11-07T14:27:02.158Z,2.13
2022-11-07T14:29:29.268Z,2.00
2022-11-07T14:32:06.201Z,1.30
2022-11-07T14:34:36.191Z,3.95
2022-11-07T14:37:07.109Z,3.67
2022-11-07T14:39:34.575Z,2.90
2022-11-07T14:42:04.893Z,4.72
2022-11-07T14:44:54.853Z,2.10
2022-11-07T14:49:53.247Z,5.40
2022-11-07T14:52:25.731Z,1.70
2022-11-07T14:55:19.103Z,2.35
2022-11-07T14:57:46.776Z,1.40
2022-11-07T15:00:16.682Z,1.52
2022-11-07T15:02:47.168Z,1.80
2022-11-07T15:07:56.901Z,1.73
2022-11-07T15:10:33.693Z,1.65
2022-11-07T15:13:03.916Z,1.60
2022-11-07T15:15:37.771Z,1.60
2022-11-07T15:18:06.900Z,1.17
2022-11-07T15:20:38.409Z,1.50
2022-11-07T15:23:28.233Z,1.40
2022-11-07T15:26:19.555Z,0.80
2022-11-07T15:28:52.168Z,1.95
2022-11-07T15:31:24.194Z,1.80
2022-11-07T15:33:52.871Z,2.33
2022-11-07T15:36:20.776Z,2.10
2022-11-07T15:38:50.107Z,1.92
2022-11-07T15:41:17.323Z,1.90
2022-11-07T15:43:44.683Z,1.58
2022-11-07T15:46:36.302Z,1.65
2022-11-07T15:49:04.031Z,1.70
2022-11-07T15:51:31.807Z,1.83
2022-11-07T15:53:59.184Z,1.48
2022-11-07T15:56:26.854Z,2.15
2022-11-07T15:58:55.176Z,1.25
2022-11-07T16:01:23.376Z,1.10
2022-11-07T16:03:50.642Z,1.45
2022-11-07T16:06:31.651Z,1.30
2022-11-07T16:08:59.520Z,1.50
2022-11-07T16:11:27.332Z,1.33
2022-11-07T16:14:14.804Z,1.38
2022-11-07T16:16:43.373Z,1.70
2022-11-07T16:19:20.811Z,1.90
2022-11-07T16:21:50.622Z,2.47
2022-11-07T16:24:17.722Z,2.17
2022-11-07T16:26:49.630Z,2.05
2022-11-07T16:29:16.725Z,1.33
2022-11-07T16:31:44.033Z,1.88
2022-11-07T16:34:11.652Z,2.08
2022-11-07T16:36:39.991Z,2.10
2022-11-07T16:39:08.165Z,1.65
2022-11-07T16:41:35.260Z,1.75
2022-11-07T16:44:04.777Z,1.63
2022-11-07T16:46:38.040Z,3.80
2022-11-07T16:49:23.049Z,2.20
2022-11-07T16:51:50.485Z,2.10
2022-11-07T16:54:18.632Z,2.22
2022-11-07T16:56:48.252Z,1.75
2022-11-07T16:59:24.830Z,2.10
2022-11-07T17:01:54.376Z,2.25
2022-11-07T17:04:21.511Z,2.35
2022-11-07T17:06:48.748Z,2.20
2022-11-07T17:09:17.440Z,2.58
2022-11-07T17:11:45.243Z,2.38
2022-11-07T17:14:12.932Z,2.53
2022-11-07T17:16:43.511Z,2.40
2022-11-07T17:21:46.949Z,2.20
2022-11-07T17:24:15.122Z,2.58
2022-11-07T17:26:43.434Z,2.50
2022-11-07T17:29:15.731Z,2.47
2022-11-07T17:31:44.030Z,2.20
2022-11-07T17:34:11.340Z,2.75
2022-11-07T17:36:50.239Z,2.67
2022-11-07T17:39:20.191Z,2.58
2022-11-07T17:41:52.276Z,2.60
2022-11-07T17:44:19.801Z,2.60
2022-11-07T17:46:51.890Z,2.97
2022-11-07T17:49:22.176Z,2.78
2022-11-07T17:51:49.310Z,1.90
2022-11-07T17:54:16.755Z,2.55
2022-11-07T17:56:43.814Z,2.28
2022-11-07T17:59:16.282Z,2.65
2022-11-07T18:01:44.500Z,2.78
2022-11-07T18:04:15.011Z,2.80
2022-11-07T18:06:43.318Z,2.75
2022-11-07T18:09:14.922Z,2.47
2022-11-07T18:11:42.542Z,2.47
2022-11-07T18:14:12.404Z,2.53
2022-11-07T18:16:39.566Z,2.60
2022-11-07T18:19:06.922Z,2.28
2022-11-07T18:21:34.069Z,2.38
2022-11-07T18:24:01.442Z,2.75
2022-11-07T18:26:30.943Z,2.40
2022-11-07T18:29:02.530Z,2.60
2022-11-07T18:31:29.821Z,2.53
2022-11-07T18:34:02.241Z,2.88
2022-11-07T18:36:30.901Z,2.45
2022-11-07T18:39:17.841Z,2.78
2022-11-07T18:41:45.952Z,2.72
2022-11-07T18:44:13.399Z,2.28
2022-11-07T18:46:40.833Z,2.85
2022-11-07T18:49:11.554Z,2.50
2022-11-07T18:51:38.714Z,2.42
2022-11-07T18:54:07.061Z,3.05
2022-11-07T18:56:34.190Z,3.08
2022-11-07T18:59:01.343Z,2.78
2022-11-07T19:01:32.502Z,2.90
2022-11-07T19:04:02.060Z,3.10
2022-11-07T19:06:30.941Z,2.50
2022-11-07T19:08:58.401Z,2.67
2022-11-07T19:11:29.534Z,3.03
2022-11-07T19:13:59.949Z,2.92
2022-11-07T19:16:27.281Z,3.03
2022-11-07T19:18:54.408Z,3.15
2022-11-07T19:21:23.629Z,2.88
2022-11-07T19:23:51.176Z,3.13
2022-11-07T19:26:21.552Z,3.20
2022-11-07T19:28:48.814Z,2.92
2022-11-07T19:31:16.442Z,3.70
2022-11-07T19:33:43.997Z,3.33
2022-11-07T19:36:16.703Z,3.38
2022-11-07T19:38:45.016Z,3.90
2022-11-07T19:41:13.166Z,3.38
2022-11-07T19:43:42.728Z,3.83
2022-11-07T19:46:14.788Z,3.67
2022-11-07T19:48:43.000Z,3.35
2022-11-07T19:51:21.585Z,4.15
2022-11-07T19:53:57.067Z,4.00
2022-11-07T19:56:26.858Z,3.15
2022-11-07T19:58:54.689Z,4.00
2022-11-07T20:01:28.373Z,3.95
2022-11-07T20:03:56.493Z,4.40
2022-11-07T20:06:27.035Z,4.30
2022-11-07T20:08:54.241Z,4.00
2022-11-07T20:11:25.445Z,4.05
2022-11-07T20:13:58.592Z,4.40
2022-11-07T20:16:27.730Z,4.55
2022-11-07T20:18:54.961Z,5.20
2022-11-07T20:21:23.591Z,5.20
2022-11-07T20:23:53.897Z,4.88
2022-11-07T20:26:23.478Z,5.55
2022-11-07T20:28:51.074Z,5.68
2022-11-07T20:31:25.475Z,5.88
2022-11-07T20:33:53.317Z,5.90
2022-11-07T20:36:21.435Z,4.85
2022-11-07T20:38:48.958Z,6.28
2022-11-07T20:41:16.334Z,5.03
2022-11-07T20:43:43.965Z,5.45
2022-11-07T20:46:15.020Z,5.57
2022-11-07T20:48:43.177Z,5.47
2022-11-07T20:51:16.030Z,5.00
2022-11-07T20:53:49.542Z,6.00
2022-11-07T20:56:18.653Z,5.78
2022-11-07T20:58:46.625Z,6.70
2022-11-07T21:01:17.951Z,6.18
2022-11-07T21:03:45.616Z,6.13
2022-11-07T21:06:13.457Z,6.38
2022-11-07T21:08:45.660Z,6.25
2022-11-07T21:11:14.200Z,6.45
2022-11-07T21:13:46.521Z,5.00
2022-11-07T21:16:15.446Z,6.75
2022-11-07T21:18:42.696Z,5.63
2022-11-07T21:21:20.476Z,7.13
2022-11-07T21:23:49.255Z,6.03
2022-11-07T21:26:30.425Z,7.75
2022-11-07T21:28:58.083Z,5.93
2022-11-07T21:31:28.679Z,7.22
2022-11-07T21:36:28.409Z,6.45
2022-11-07T21:38:57.222Z,6.82
2022-11-07T21:41:24.917Z,5.50
2022-11-07T21:43:52.722Z,8.50
2022-11-07T21:46:22.846Z,7.63
2022-11-07T21:48:50.670Z,7.47
2022-11-07T21:51:21.341Z,6.05
2022-11-07T21:56:24.583Z,7.07
2022-11-07T21:58:53.499Z,8.57
2022-11-07T22:01:22.543Z,7.65
2022-11-07T22:04:06.182Z,8.02
2022-11-07T22:06:36.598Z,7.45
2022-11-07T22:09:05.186Z,7.85
2022-11-07T22:11:32.304Z,7.95
2022-11-07T22:13:59.898Z,7.82
2022-11-07T22:16:27.218Z,7.35
2022-11-07T22:18:54.460Z,7.88
2022-11-07T22:21:23.253Z,7.90
2022-11-07T22:23:51.222Z,9.77
2022-11-07T22:26:23.517Z,8.15
2022-11-07T22:28:51.721Z,10.07
2022-11-07T22:31:27.243Z,8.85
2022-11-07T22:33:55.884Z,9.73
2022-11-07T22:36:23.592Z,11.13
2022-11-07T22:38:51.196Z,11.10
2022-11-07T22:41:23.647Z,8.55
2022-11-07T22:43:52.095Z,10.00
2022-11-07T22:46:21.789Z,9.77
2022-11-07T22:48:49.789Z,10.20
2022-11-07T22:51:28.612Z,10.27
2022-11-07T22:54:02.226Z,10.05
2022-11-07T22:56:30.532Z,9.13
2022-11-07T22:58:58.335Z,8.18
2022-11-07T23:01:28.277Z,11.63
2022-11-07T23:03:56.851Z,8.63
2022-11-07T23:06:25.455Z,8.85
2022-11-07T23:08:53.442Z,8.77
2022-11-07T23:14:14.471Z,8.48
2022-11-07T23:19:14.346Z,7.95
2022-11-07T23:21:41.827Z,12.18
2022-11-07T23:24:09.388Z,9.88
2022-11-07T23:26:36.691Z,11.50
2022-11-07T23:29:11.292Z,8.77
2022-11-07T23:31:45.612Z,9.25
2022-11-07T23:34:13.561Z,9.07
2022-11-07T23:36:44.287Z,8.57
2022-11-07T23:39:16.872Z,8.85
2022-11-07T23:41:44.879Z,12.13
2022-11-07T23:44:12.304Z,9.88
2022-11-07T23:46:58.380Z,8.93
2022-11-07T23:49:44.213Z,11.38
2022-11-07T23:52:12.138Z,9.77
2022-11-07T23:54:57.881Z,9.68
2022-11-07T23:57:25.313Z,11.85
